sensor_id;sensor_type;location;lat;lon;timestamp;pressure;altitude;pressure_sealevel;temperature;humidity
57074;BME280;69035;54.392;18.574;2023-04-22T00:01:47;101604.47;;;5.14;53.98
57074;BME280;69035;54.392;18.574;2023-04-22T00:04:16;101595.78;;;5.13;53.57
57074;BME280;69035;54.392;18.574;2023-04-22T00:06:48;101592.28;;;5.13;52.93
57074;BME280;69035;54.392;18.574;2023-04-22T00:09:17;101597.47;;;5.11;52.91
57074;BME280;69035;54.392;18.574;2023-04-22T00:11:46;101587.88;;;5.10;52.53
57074;BME280;69035;54.392;18.574;2023-04-22T00:14:15;101598.31;;;5.10;53.43
57074;BME280;69035;54.392;18.574;2023-04-22T00:16:44;101587.03;;;5.11;53.63
57074;BME280;69035;54.392;18.574;2023-04-22T00:19:13;101585.31;;;5.12;53.29
57074;BME280;69035;54.392;18.574;2023-04-22T00:21:43;101590.56;;;5.13;54.29
57074;BME280;69035;54.392;18.574;2023-04-22T00:24:12;101583.63;;;5.14;53.95
57074;BME280;69035;54.392;18.574;2023-04-22T00:26:41;101587.09;;;5.13;53.86
57074;BME280;69035;54.392;18.574;2023-04-22T00:29:10;101583.63;;;5.14;53.46
57074;BME280;69035;54.392;18.574;2023-04-22T00:31:39;101583.63;;;5.14;52.77
57074;BME280;69035;54.392;18.574;2023-04-22T00:34:08;101580.94;;;5.11;53.83
57074;BME280;69035;54.392;18.574;2023-04-22T00:36:36;101575.63;;;5.06;53.71
57074;BME280;69035;54.392;18.574;2023-04-22T00:39:06;101579.00;;;5.03;53.31
57074;BME280;69035;54.392;18.574;2023-04-22T00:41:37;101580.69;;;5.00;54.25
57074;BME280;69035;54.392;18.574;2023-04-22T00:44:08;101569.16;;;4.92;54.17
57074;BME280;69035;54.392;18.574;2023-04-22T00:46:37;101566.44;;;4.87;54.45
57074;BME280;69035;54.392;18.574;2023-04-22T00:49:07;101566.50;;;4.88;53.50
57074;BME280;69035;54.392;18.574;2023-04-22T00:51:36;101562.06;;;4.86;54.96
57074;BME280;69035;54.392;18.574;2023-04-22T00:54:06;101556.78;;;4.83;54.80
57074;BME280;69035;54.392;18.574;2023-04-22T00:56:36;101559.38;;;4.81;54.99
57074;BME280;69035;54.392;18.574;2023-04-22T00:59:06;101560.16;;;4.79;54.38
57074;BME280;69035;54.392;18.574;2023-04-22T01:01:37;101557.44;;;4.74;54.72
57074;BME280;69035;54.392;18.574;2023-04-22T01:04:06;101561.66;;;4.69;55.43
57074;BME280;69035;54.392;18.574;2023-04-22T01:06:39;101565.09;;;4.68;54.79
57074;BME280;69035;54.392;18.574;2023-04-22T01:09:10;101564.16;;;4.66;54.88
57074;BME280;69035;54.392;18.574;2023-04-22T01:11:39;101565.81;;;4.62;54.46
57074;BME280;69035;54.392;18.574;2023-04-22T01:14:08;101559.59;;;4.57;56.12
57074;BME280;69035;54.392;18.574;2023-04-22T01:16:39;101563.84;;;4.53;55.70
57074;BME280;69035;54.392;18.574;2023-04-22T01:19:10;101563.69;;;4.47;56.28
57074;BME280;69035;54.392;18.574;2023-04-22T01:21:39;101566.19;;;4.43;56.56
57074;BME280;69035;54.392;18.574;2023-04-22T01:24:13;101571.41;;;4.44;55.43
57074;BME280;69035;54.392;18.574;2023-04-22T01:26:42;101566.06;;;4.40;55.71
57074;BME280;69035;54.392;18.574;2023-04-22T01:29:11;101569.53;;;4.39;56.15
57074;BME280;69035;54.392;18.574;2023-04-22T01:31:41;101566.94;;;4.39;56.42
57074;BME280;69035;54.392;18.574;2023-04-22T01:34:10;101535.06;;;4.15;57.04
57074;BME280;69035;54.392;18.574;2023-04-22T01:36:39;101569.44;;;4.35;56.86
57074;BME280;69035;54.392;18.574;2023-04-22T01:39:07;101575.44;;;4.33;56.60
57074;BME280;69035;54.392;18.574;2023-04-22T01:41:38;101570.16;;;4.30;56.03
57074;BME280;69035;54.392;18.574;2023-04-22T01:44:07;101578.78;;;4.29;56.96
57074;BME280;69035;54.392;18.574;2023-04-22T01:46:35;101567.47;;;4.27;56.67
57074;BME280;69035;54.392;18.574;2023-04-22T01:49:05;101568.31;;;4.26;57.12
57074;BME280;69035;54.392;18.574;2023-04-22T01:51:34;101571.78;;;4.26;57.42
57074;BME280;69035;54.392;18.574;2023-04-22T01:54:03;101569.91;;;4.22;57.31
57074;BME280;69035;54.392;18.574;2023-04-22T01:56:32;101572.50;;;4.22;56.50
57074;BME280;69035;54.392;18.574;2023-04-22T01:59:03;101570.72;;;4.19;56.70
57074;BME280;69035;54.392;18.574;2023-04-22T02:01:34;101566.34;;;4.18;57.46
57074;BME280;69035;54.392;18.574;2023-04-22T02:04:05;101571.59;;;4.20;57.44
57074;BME280;69035;54.392;18.574;2023-04-22T02:06:34;101571.53;;;4.17;58.10
57074;BME280;69035;54.392;18.574;2023-04-22T02:09:04;101562.59;;;4.09;58.96
57074;BME280;69035;54.392;18.574;2023-04-22T02:11:33;101562.56;;;4.07;57.80
57074;BME280;69035;54.392;18.574;2023-04-22T02:14:03;101560.00;;;4.09;58.36
57074;BME280;69035;54.392;18.574;2023-04-22T02:16:32;101561.56;;;4.02;57.25
57074;BME280;69035;54.392;18.574;2023-04-22T02:19:01;101555.50;;;4.03;57.91
57074;BME280;69035;54.392;18.574;2023-04-22T02:21:31;101560.66;;;4.01;58.38
57074;BME280;69035;54.392;18.574;2023-04-22T02:24:00;101549.19;;;3.93;58.05
57074;BME280;69035;54.392;18.574;2023-04-22T02:26:29;101551.88;;;3.96;59.00
57074;BME280;69035;54.392;18.574;2023-04-22T02:28:58;101551.00;;;3.97;58.97
57074;BME280;69035;54.392;18.574;2023-04-22T02:31:28;101551.16;;;4.02;58.06
57074;BME280;69035;54.392;18.574;2023-04-22T02:33:57;101551.16;;;4.02;58.44
57074;BME280;69035;54.392;18.574;2023-04-22T02:36:26;101543.25;;;3.99;58.09
57074;BME280;69035;54.392;18.574;2023-04-22T02:38:55;101549.31;;;3.98;58.02
57074;BME280;69035;54.392;18.574;2023-04-22T02:41:24;101547.44;;;3.94;59.17
57074;BME280;69035;54.392;18.574;2023-04-22T02:43:52;101552.59;;;3.92;58.97
57074;BME280;69035;54.392;18.574;2023-04-22T02:46:22;101547.34;;;3.91;58.79
57074;BME280;69035;54.392;18.574;2023-04-22T02:48:52;101551.66;;;3.90;59.11
57074;BME280;69035;54.392;18.574;2023-04-22T02:51:21;101547.31;;;3.89;59.38
57074;BME280;69035;54.392;18.574;2023-04-22T02:53:50;101548.97;;;3.87;59.45
57074;BME280;69035;54.392;18.574;2023-04-22T02:56:19;101547.31;;;3.89;58.73
57074;BME280;69035;54.392;18.574;2023-04-22T02:58:47;101549.00;;;3.89;58.95
57074;BME280;69035;54.392;18.574;2023-04-22T03:01:16;101545.53;;;3.88;59.17
57074;BME280;69035;54.392;18.574;2023-04-22T03:03:45;101549.88;;;3.88;58.79
57074;BME280;69035;54.392;18.574;2023-04-22T03:06:22;101541.13;;;3.86;59.03
57074;BME280;69035;54.392;18.574;2023-04-22T03:08:50;101543.69;;;3.84;59.10
57074;BME280;69035;54.392;18.574;2023-04-22T03:11:19;101541.03;;;3.82;59.87
57074;BME280;69035;54.392;18.574;2023-04-22T03:13:48;101546.31;;;3.86;60.11
57074;BME280;69035;54.392;18.574;2023-04-22T03:16:17;101537.66;;;3.85;60.10
57074;BME280;69035;54.392;18.574;2023-04-22T03:18:46;101535.09;;;3.87;59.75
57074;BME280;69035;54.392;18.574;2023-04-22T03:21:15;101540.25;;;3.85;59.96
57074;BME280;69035;54.392;18.574;2023-04-22T03:23:46;101535.94;;;3.86;60.02
57074;BME280;69035;54.392;18.574;2023-04-22T03:26:16;101542.13;;;3.89;60.69
57074;BME280;69035;54.392;18.574;2023-04-22T03:28:45;101537.88;;;3.93;59.21
57074;BME280;69035;54.392;18.574;2023-04-22T03:31:15;101538.81;;;3.95;59.40
57074;BME280;69035;54.392;18.574;2023-04-22T03:33:45;101537.94;;;3.96;59.54
57074;BME280;69035;54.392;18.574;2023-04-22T03:36:23;101534.47;;;3.95;59.51
57074;BME280;69035;54.392;18.574;2023-04-22T03:38:55;101529.28;;;3.95;60.21
57074;BME280;69035;54.392;18.574;2023-04-22T03:41:25;101528.53;;;3.99;60.72
57074;BME280;69035;54.392;18.574;2023-04-22T03:43:54;101527.78;;;4.04;59.92
57074;BME280;69035;54.392;18.574;2023-04-22T03:46:26;101534.78;;;4.06;59.87
57074;BME280;69035;54.392;18.574;2023-04-22T03:49:02;101529.50;;;4.03;60.16
57074;BME280;69035;54.392;18.574;2023-04-22T03:51:34;101535.69;;;4.07;60.27
57074;BME280;69035;54.392;18.574;2023-04-22T03:54:09;101533.13;;;4.08;60.86
57074;BME280;69035;54.392;18.574;2023-04-22T03:56:44;101528.94;;;4.15;61.33
57074;BME280;69035;54.392;18.574;2023-04-22T03:59:14;101525.72;;;4.24;60.39
57074;BME280;69035;54.392;18.574;2023-04-22T04:01:44;101523.19;;;4.25;60.91
57074;BME280;69035;54.392;18.574;2023-04-22T04:04:16;101524.22;;;4.32;60.09
57074;BME280;69035;54.392;18.574;2023-04-22T04:06:51;101523.50;;;4.38;61.01
57074;BME280;69035;54.392;18.574;2023-04-22T04:09:21;101522.75;;;4.42;60.38
57074;BME280;69035;54.392;18.574;2023-04-22T04:11:51;101517.66;;;4.46;61.27
57074;BME280;69035;54.392;18.574;2023-04-22T04:14:20;101517.00;;;4.53;61.35
57074;BME280;69035;54.392;18.574;2023-04-22T04:16:51;101511.09;;;4.61;59.82
57074;BME280;69035;54.392;18.574;2023-04-22T04:19:25;101511.31;;;4.70;61.23
57074;BME280;69035;54.392;18.574;2023-04-22T04:21:55;101515.09;;;4.81;60.30
57074;BME280;69035;54.392;18.574;2023-04-22T04:24:27;101514.44;;;4.90;59.86
57074;BME280;69035;54.392;18.574;2023-04-22T04:27:03;101518.97;;;4.99;60.51
57074;BME280;69035;54.392;18.574;2023-04-22T04:29:40;101523.53;;;5.07;59.20
57074;BME280;69035;54.392;18.574;2023-04-22T04:32:14;101512.34;;;5.12;59.94
57074;BME280;69035;54.392;18.574;2023-04-22T04:34:44;101521.38;;;5.26;59.37
57074;BME280;69035;54.392;18.574;2023-04-22T04:37:16;101516.34;;;5.35;59.53
57074;BME280;69035;54.392;18.574;2023-04-22T04:40:00;101511.44;;;5.48;59.58
57074;BME280;69035;54.392;18.574;2023-04-22T04:42:41;101509.91;;;5.59;59.36
57074;BME280;69035;54.392;18.574;2023-04-22T04:45:17;101509.38;;;5.74;59.55
57074;BME280;69035;54.392;18.574;2023-04-22T04:47:47;101506.06;;;5.81;60.33
57074;BME280;69035;54.392;18.574;2023-04-22T04:50:21;101499.47;;;5.97;58.70
57074;BME280;69035;54.392;18.574;2023-04-22T04:52:50;101504.97;;;6.13;58.69
57074;BME280;69035;54.392;18.574;2023-04-22T04:55:26;101508.66;;;6.24;58.23
57074;BME280;69035;54.392;18.574;2023-04-22T04:57:58;101501.13;;;6.39;58.83
57074;BME280;69035;54.392;18.574;2023-04-22T05:00:27;101498.81;;;6.56;58.08
57074;BME280;69035;54.392;18.574;2023-04-22T05:02:56;101503.50;;;6.74;57.90
57074;BME280;69035;54.392;18.574;2023-04-22T05:05:26;101503.66;;;6.85;57.59
57074;BME280;69035;54.392;18.574;2023-04-22T05:07:55;101500.44;;;7.03;57.88
57074;BME280;69035;54.392;18.574;2023-04-22T05:10:27;101499.84;;;7.20;57.86
57074;BME280;69035;54.392;18.574;2023-04-22T05:12:57;101494.81;;;7.35;57.75
57074;BME280;69035;54.392;18.574;2023-04-22T05:15:28;101497.66;;;7.50;57.11
57074;BME280;69035;54.392;18.574;2023-04-22T05:17:57;101499.63;;;7.68;57.04
57074;BME280;69035;54.392;18.574;2023-04-22T05:20:26;101485.81;;;7.80;56.60
57074;BME280;69035;54.392;18.574;2023-04-22T05:22:55;101496.56;;;8.03;55.84
57074;BME280;69035;54.392;18.574;2023-04-22T05:25:24;101489.72;;;8.16;55.92
57074;BME280;69035;54.392;18.574;2023-04-22T05:28:01;101496.88;;;8.33;55.39
57074;BME280;69035;54.392;18.574;2023-04-22T05:30:37;101491.88;;;8.53;55.91
57074;BME280;69035;54.392;18.574;2023-04-22T05:33:07;101497.31;;;8.75;55.42
57074;BME280;69035;54.392;18.574;2023-04-22T05:35:38;101494.84;;;8.93;55.23
57074;BME280;69035;54.392;18.574;2023-04-22T05:38:09;101492.38;;;9.10;54.88
57074;BME280;69035;54.392;18.574;2023-04-22T05:40:39;101491.63;;;9.33;54.69
57074;BME280;69035;54.392;18.574;2023-04-22T05:43:12;101488.25;;;9.54;55.36
57074;BME280;69035;54.392;18.574;2023-04-22T05:45:46;101493.56;;;9.75;55.20
57074;BME280;69035;54.392;18.574;2023-04-22T05:48:16;101487.53;;;9.95;54.30
57074;BME280;69035;54.392;18.574;2023-04-22T05:50:55;101484.97;;;10.14;53.57
57074;BME280;69035;54.392;18.574;2023-04-22T05:53:27;101489.44;;;10.35;53.14
57074;BME280;69035;54.392;18.574;2023-04-22T05:55:58;101488.56;;;10.51;53.99
57074;BME280;69035;54.392;18.574;2023-04-22T05:58:29;101486.81;;;10.70;53.48
57074;BME280;69035;54.392;18.574;2023-04-22T06:01:04;101485.97;;;10.90;53.71
57074;BME280;69035;54.392;18.574;2023-04-22T06:03:56;101487.69;;;11.06;52.80
57074;BME280;69035;54.392;18.574;2023-04-22T06:06:25;101485.06;;;11.22;52.54
57074;BME280;69035;54.392;18.574;2023-04-22T06:08:55;101485.00;;;11.36;52.44
57074;BME280;69035;54.392;18.574;2023-04-22T06:11:24;101479.75;;;11.40;51.20
57074;BME280;69035;54.392;18.574;2023-04-22T06:13:55;101477.94;;;11.58;52.21
57074;BME280;69035;54.392;18.574;2023-04-22T06:16:24;101481.41;;;11.63;51.05
57074;BME280;69035;54.392;18.574;2023-04-22T06:18:53;101476.06;;;11.84;51.57
57074;BME280;69035;54.392;18.574;2023-04-22T06:21:23;101482.19;;;12.00;51.57
57074;BME280;69035;54.392;18.574;2023-04-22T06:23:52;101483.00;;;12.12;51.11
57074;BME280;69035;54.392;18.574;2023-04-22T06:26:20;101482.06;;;12.24;50.98
57074;BME280;69035;54.392;18.574;2023-04-22T06:28:49;101479.34;;;12.31;49.81
57074;BME280;69035;54.392;18.574;2023-04-22T06:31:21;101481.09;;;12.35;49.64
57074;BME280;69035;54.392;18.574;2023-04-22T06:33:50;101478.41;;;12.43;49.44
57074;BME280;69035;54.392;18.574;2023-04-22T06:36:19;101470.44;;;12.48;49.40
57074;BME280;69035;54.392;18.574;2023-04-22T06:38:53;101478.28;;;12.59;49.08
57074;BME280;69035;54.392;18.574;2023-04-22T06:41:24;101472.88;;;12.74;48.96
57074;BME280;69035;54.392;18.574;2023-04-22T06:43:58;101479.84;;;12.86;48.85
57074;BME280;69035;54.392;18.574;2023-04-22T06:46:54;101474.56;;;12.84;48.29
57074;BME280;69035;54.392;18.574;2023-04-22T06:49:46;101471.84;;;12.94;48.33
57074;BME280;69035;54.392;18.574;2023-04-22T06:52:39;101471.72;;;13.06;48.42
57074;BME280;69035;54.392;18.574;2023-04-22T06:55:08;101475.19;;;13.11;48.11
57074;BME280;69035;54.392;18.574;2023-04-22T06:57:37;101468.16;;;13.10;47.62
57074;BME280;69035;54.392;18.574;2023-04-22T07:00:07;101470.03;;;12.99;47.77
57074;BME280;69035;54.392;18.574;2023-04-22T07:02:40;101471.72;;;13.06;48.16
57074;BME280;69035;54.392;18.574;2023-04-22T07:05:09;101476.06;;;13.12;47.98
57074;BME280;69035;54.392;18.574;2023-04-22T07:07:39;101469.78;;;13.27;48.00
57074;BME280;69035;54.392;18.574;2023-04-22T07:10:12;101470.56;;;13.36;47.76
57074;BME280;69035;54.392;18.574;2023-04-22T07:12:53;101469.56;;;13.47;47.79
57074;BME280;69035;54.392;18.574;2023-04-22T07:15:22;101470.38;;;13.53;47.54
57074;BME280;69035;54.392;18.574;2023-04-22T07:17:52;101466.88;;;13.50;46.92
57074;BME280;69035;54.392;18.574;2023-04-22T07:20:22;101458.06;;;13.52;46.80
57074;BME280;69035;54.392;18.574;2023-04-22T07:22:51;101464.16;;;13.59;46.87
57074;BME280;69035;54.392;18.574;2023-04-22T07:25:20;101463.22;;;13.63;46.87
57074;BME280;69035;54.392;18.574;2023-04-22T07:27:49;101451.88;;;13.55;46.47
57074;BME280;69035;54.392;18.574;2023-04-22T07:30:18;101458.88;;;13.57;46.53
57074;BME280;69035;54.392;18.574;2023-04-22T07:32:47;101448.09;;;13.74;46.38
57074;BME280;69035;54.392;18.574;2023-04-22T07:35:17;101448.84;;;13.84;46.54
57074;BME280;69035;54.392;18.574;2023-04-22T07:37:46;101455.81;;;13.90;46.40
57074;BME280;69035;54.392;18.574;2023-04-22T07:40:15;101455.72;;;13.98;46.62
57074;BME280;69035;54.392;18.574;2023-04-22T07:42:44;101456.63;;;13.97;46.24
57074;BME280;69035;54.392;18.574;2023-04-22T07:45:13;101446.84;;;14.02;46.03
57074;BME280;69035;54.392;18.574;2023-04-22T07:47:41;101449.53;;;13.99;45.81
57074;BME280;69035;54.392;18.574;2023-04-22T07:50:10;101455.75;;;13.96;45.87
57074;BME280;69035;54.392;18.574;2023-04-22T07:52:41;101441.50;;;14.05;45.44
57074;BME280;69035;54.392;18.574;2023-04-22T07:55:10;101452.22;;;13.97;45.44
57074;BME280;69035;54.392;18.574;2023-04-22T07:57:38;101450.34;;;14.05;45.41
57074;BME280;69035;54.392;18.574;2023-04-22T08:00:08;101453.00;;;14.05;45.05
57074;BME280;69035;54.392;18.574;2023-04-22T08:02:40;101444.13;;;14.08;44.82
57074;BME280;69035;54.392;18.574;2023-04-22T08:05:10;101454.00;;;13.95;44.81
57074;BME280;69035;54.392;18.574;2023-04-22T08:07:40;101455.63;;;14.05;44.83
57074;BME280;69035;54.392;18.574;2023-04-22T08:10:09;101458.13;;;14.15;44.43
57074;BME280;69035;54.392;18.574;2023-04-22T08:12:38;101450.09;;;14.21;44.40
57074;BME280;69035;54.392;18.574;2023-04-22T08:15:07;101457.84;;;14.35;44.67
57074;BME280;69035;54.392;18.574;2023-04-22T08:17:36;101453.06;;;14.57;44.56
57074;BME280;69035;54.392;18.574;2023-04-22T08:20:06;101451.75;;;14.86;44.61
57074;BME280;69035;54.392;18.574;2023-04-22T08:22:35;101453.34;;;14.94;44.09
57074;BME280;69035;54.392;18.574;2023-04-22T08:25:08;101450.50;;;15.05;44.29
57074;BME280;69035;54.392;18.574;2023-04-22T08:27:36;101444.41;;;15.02;43.98
57074;BME280;69035;54.392;18.574;2023-04-22T08:30:06;101446.72;;;15.19;44.34
57074;BME280;69035;54.392;18.574;2023-04-22T08:32:35;101446.41;;;15.36;44.26
57074;BME280;69035;54.392;18.574;2023-04-22T08:35:05;101444.41;;;15.47;43.91
57074;BME280;69035;54.392;18.574;2023-04-22T08:37:34;101442.97;;;15.32;43.74
57074;BME280;69035;54.392;18.574;2023-04-22T08:40:03;101446.66;;;15.23;43.38
57074;BME280;69035;54.392;18.574;2023-04-22T08:42:33;101440.53;;;15.20;43.33
57074;BME280;69035;54.392;18.574;2023-04-22T08:45:04;101445.78;;;15.21;43.45
57074;BME280;69035;54.392;18.574;2023-04-22T08:47:33;101449.28;;;15.25;43.68
57074;BME280;69035;54.392;18.574;2023-04-22T08:50:04;101442.25;;;15.22;43.72
57074;BME280;69035;54.392;18.574;2023-04-22T08:52:33;101437.69;;;15.30;43.69
57074;BME280;69035;54.392;18.574;2023-04-22T08:55:02;101443.53;;;15.46;43.85
57074;BME280;69035;54.392;18.574;2023-04-22T08:57:31;101446.84;;;15.58;43.18
57074;BME280;69035;54.392;18.574;2023-04-22T09:00:03;101440.63;;;15.59;42.88
57074;BME280;69035;54.392;18.574;2023-04-22T09:02:32;101439.75;;;15.60;43.08
57074;BME280;69035;54.392;18.574;2023-04-22T09:05:02;101439.03;;;15.51;42.88
57074;BME280;69035;54.392;18.574;2023-04-22T09:07:33;101445.03;;;15.60;42.93
57074;BME280;69035;54.392;18.574;2023-04-22T09:10:03;101432.81;;;15.52;42.85
57074;BME280;69035;54.392;18.574;2023-04-22T09:12:34;101438.00;;;15.59;42.97
57074;BME280;69035;54.392;18.574;2023-04-22T09:15:06;101444.03;;;15.65;42.69
57074;BME280;69035;54.392;18.574;2023-04-22T09:17:35;101436.81;;;15.72;42.72
57074;BME280;69035;54.392;18.574;2023-04-22T09:20:06;101436.88;;;15.69;42.82
57074;BME280;69035;54.392;18.574;2023-04-22T09:22:37;101439.88;;;15.52;42.63
57074;BME280;69035;54.392;18.574;2023-04-22T09:25:14;101437.44;;;15.43;43.02
57074;BME280;69035;54.392;18.574;2023-04-22T09:27:47;101438.28;;;15.43;43.24
57074;BME280;69035;54.392;18.574;2023-04-22T09:30:22;101445.22;;;15.50;43.33
57074;BME280;69035;54.392;18.574;2023-04-22T09:32:52;101444.22;;;15.56;43.72
57074;BME280;69035;54.392;18.574;2023-04-22T09:35:25;101435.41;;;15.56;43.50
57074;BME280;69035;54.392;18.574;2023-04-22T09:37:54;101437.72;;;15.71;43.10
57074;BME280;69035;54.392;18.574;2023-04-22T09:40:23;101440.44;;;15.68;43.49
57074;BME280;69035;54.392;18.574;2023-04-22T09:42:54;101438.69;;;15.68;43.50
57074;BME280;69035;54.392;18.574;2023-04-22T09:45:29;101439.38;;;15.77;43.68
57074;BME280;69035;54.392;18.574;2023-04-22T09:48:01;101439.66;;;15.64;42.94
57074;BME280;69035;54.392;18.574;2023-04-22T09:50:31;101437.75;;;15.69;42.86
57074;BME280;69035;54.392;18.574;2023-04-22T09:53:01;101422.84;;;15.64;42.57
57074;BME280;69035;54.392;18.574;2023-04-22T09:55:32;101432.44;;;15.69;42.83
57074;BME280;69035;54.392;18.574;2023-04-22T09:58:05;101430.25;;;15.92;43.05
57074;BME280;69035;54.392;18.574;2023-04-22T10:00:40;101428.03;;;16.12;42.43
57074;BME280;69035;54.392;18.574;2023-04-22T10:03:09;101428.56;;;16.27;42.25
57074;BME280;69035;54.392;18.574;2023-04-22T10:05:38;101427.56;;;16.31;42.42
57074;BME280;69035;54.392;18.574;2023-04-22T10:08:08;101420.50;;;16.31;42.49
57074;BME280;69035;54.392;18.574;2023-04-22T10:10:39;101420.53;;;16.30;42.89
57074;BME280;69035;54.392;18.574;2023-04-22T10:13:08;101407.31;;;16.28;42.64
57074;BME280;69035;54.392;18.574;2023-04-22T10:15:40;101415.34;;;16.24;42.13
57074;BME280;69035;54.392;18.574;2023-04-22T10:18:11;101408.53;;;16.13;41.76
57074;BME280;69035;54.392;18.574;2023-04-22T10:20:42;101402.25;;;16.17;42.47
57074;BME280;69035;54.392;18.574;2023-04-22T10:23:12;101395.22;;;16.15;41.42
57074;BME280;69035;54.392;18.574;2023-04-22T10:25:40;101394.06;;;16.28;41.67
57074;BME280;69035;54.392;18.574;2023-04-22T10:28:10;101390.88;;;16.48;41.78
57074;BME280;69035;54.392;18.574;2023-04-22T10:30:41;101387.72;;;16.68;42.00
57074;BME280;69035;54.392;18.574;2023-04-22T10:33:35;101388.00;;;16.94;41.33
57074;BME280;69035;54.392;18.574;2023-04-22T10:36:10;101387.44;;;16.79;41.38
57074;BME280;69035;54.392;18.574;2023-04-22T10:39:15;101391.53;;;16.93;41.00
57074;BME280;69035;54.392;18.574;2023-04-22T10:41:50;101384.22;;;17.02;41.47
57074;BME280;69035;54.392;18.574;2023-04-22T10:44:20;101384.78;;;17.12;40.70
57074;BME280;69035;54.392;18.574;2023-04-22T10:46:59;101376.59;;;17.21;40.73
57074;BME280;69035;54.392;18.574;2023-04-22T10:49:31;101372.19;;;17.50;40.90
57074;BME280;69035;54.392;18.574;2023-04-22T10:52:04;101366.25;;;17.70;40.51
57074;BME280;69035;54.392;18.574;2023-04-22T10:54:59;101365.91;;;17.83;39.74
57074;BME280;69035;54.392;18.574;2023-04-22T10:57:34;101369.44;;;18.11;40.03
57074;BME280;69035;54.392;18.574;2023-04-22T11:03:24;101363.28;;;18.36;39.31
57074;BME280;69035;54.392;18.574;2023-04-22T11:06:13;101353.22;;;18.46;38.42
57074;BME280;69035;54.392;18.574;2023-04-22T11:08:44;101355.94;;;18.44;39.08
57074;BME280;69035;54.392;18.574;2023-04-22T11:11:15;101356.81;;;18.45;38.85
57074;BME280;69035;54.392;18.574;2023-04-22T11:13:46;101355.34;;;18.35;39.40
57074;BME280;69035;54.392;18.574;2023-04-22T11:16:20;101347.84;;;18.47;39.55
57074;BME280;69035;54.392;18.574;2023-04-22T11:18:51;101351.16;;;18.27;39.50
57074;BME280;69035;54.392;18.574;2023-04-22T11:21:20;101358.06;;;18.33;39.41
57074;BME280;69035;54.392;18.574;2023-04-22T11:23:50;101345.00;;;18.00;39.34
57074;BME280;69035;54.392;18.574;2023-04-22T11:26:32;101338.44;;;18.10;38.48
57074;BME280;69035;54.392;18.574;2023-04-22T11:29:02;101343.84;;;18.34;39.17
57074;BME280;69035;54.392;18.574;2023-04-22T11:31:30;101351.69;;;18.39;39.58
57074;BME280;69035;54.392;18.574;2023-04-22T11:34:00;101337.97;;;18.24;38.34
57074;BME280;69035;54.392;18.574;2023-04-22T11:36:29;101333.31;;;18.31;39.21
57074;BME280;69035;54.392;18.574;2023-04-22T11:38:58;101334.44;;;18.24;38.80
57074;BME280;69035;54.392;18.574;2023-04-22T11:41:27;101335.78;;;18.10;38.87
57074;BME280;69035;54.392;18.574;2023-04-22T11:43:56;101334.84;;;18.38;38.98
57074;BME280;69035;54.392;18.574;2023-04-22T11:46:28;101329.38;;;18.68;38.28
57074;BME280;69035;54.392;18.574;2023-04-22T11:49:12;101325.22;;;18.86;37.86
57074;BME280;69035;54.392;18.574;2023-04-22T11:51:54;101324.38;;;19.09;37.01
57074;BME280;69035;54.392;18.574;2023-04-22T11:54:30;101324.72;;;19.24;37.08
57074;BME280;69035;54.392;18.574;2023-04-22T11:57:02;101321.06;;;19.50;37.23
57074;BME280;69035;54.392;18.574;2023-04-22T11:59:31;101320.47;;;19.42;36.95
57074;BME280;69035;54.392;18.574;2023-04-22T12:01:59;101317.31;;;19.54;37.13
57074;BME280;69035;54.392;18.574;2023-04-22T12:04:34;101317.47;;;19.73;36.69
57074;BME280;69035;54.392;18.574;2023-04-22T12:07:03;101324.25;;;19.82;36.64
57074;BME280;69035;54.392;18.574;2023-04-22T12:09:32;101316.75;;;19.46;36.80
57074;BME280;69035;54.392;18.574;2023-04-22T12:12:02;101305.22;;;19.45;36.81
57074;BME280;69035;54.392;18.574;2023-04-22T12:14:31;101315.47;;;19.56;36.70
57074;BME280;69035;54.392;18.574;2023-04-22T12:17:02;101313.38;;;19.64;36.48
57074;BME280;69035;54.392;18.574;2023-04-22T12:19:33;101308.66;;;19.49;36.76
57074;BME280;69035;54.392;18.574;2023-04-22T12:22:01;101307.28;;;19.39;36.71
57074;BME280;69035;54.392;18.574;2023-04-22T12:24:30;101305.53;;;19.14;36.94
57074;BME280;69035;54.392;18.574;2023-04-22T12:26:59;101301.06;;;19.14;36.98
57074;BME280;69035;54.392;18.574;2023-04-22T12:29:30;101302.03;;;19.13;37.32
57074;BME280;69035;54.392;18.574;2023-04-22T12:31:59;101305.25;;;19.22;37.44
57074;BME280;69035;54.392;18.574;2023-04-22T12:34:28;101294.13;;;19.34;37.39
57074;BME280;69035;54.392;18.574;2023-04-22T12:36:58;101290.56;;;19.33;37.06
57074;BME280;69035;54.392;18.574;2023-04-22T12:39:27;101289.09;;;19.03;37.27
57074;BME280;69035;54.392;18.574;2023-04-22T12:41:55;101277.75;;;18.72;37.51
57074;BME280;69035;54.392;18.574;2023-04-22T12:44:24;101285.38;;;18.83;37.71
57074;BME280;69035;54.392;18.574;2023-04-22T12:46:53;101283.53;;;19.09;37.98
57074;BME280;69035;54.392;18.574;2023-04-22T12:49:22;101283.00;;;19.23;37.95
57074;BME280;69035;54.392;18.574;2023-04-22T12:51:51;101283.94;;;19.44;37.86
57074;BME280;69035;54.392;18.574;2023-04-22T12:54:21;101284.84;;;19.66;37.24
57074;BME280;69035;54.392;18.574;2023-04-22T12:56:50;101272.13;;;19.73;36.92
57074;BME280;69035;54.392;18.574;2023-04-22T12:59:19;101276.34;;;19.79;36.48
57074;BME280;69035;54.392;18.574;2023-04-22T13:01:47;101266.81;;;19.73;36.46
57074;BME280;69035;54.392;18.574;2023-04-22T13:04:17;101268.59;;;19.73;36.31
57074;BME280;69035;54.392;18.574;2023-04-22T13:06:46;101264.31;;;19.68;36.54
57074;BME280;69035;54.392;18.574;2023-04-22T13:09:24;101260.53;;;19.52;36.44